Forside
METAR-TAF:

METAR-TAF

Lufthavne :

Olsztyn-Mazury

Olsztyn, Polen

Breddekreds: 53-28-55N, længdekreds: 20-56-16E, højde: 141 m

Aktuelle vejr

Denne rapport blev lavet for 43 minutter siden, kl. 22:30 UTC
Vind 6 kt fra sydsydvest
Temperatur 11°C
Fugtighed 87%
Tryk 1022 hPa
Sigt 10 km eller mere
ingen skyer under 1500m og ingen cumulonimbus

METAR: EPSY 122230Z 20006KT CAVOK 11/09 Q1022

Tid: 01:13 (23:13 UTC)

Vejrudsigter

Denne rapport blev lavet for 2 timer og 43 minutter siden, kl. 20:30 UTC
Foreløbig gælder fra 12 på 21 UTC til 13 på 06 UTC
Vind 7 kt fra sydvest
Sigt 10 km eller mere
ingen skyer under 1500m og ingen cumulonimbus
Sandsynlighed 40% :
Midlertidig
fra 12 på 21 UTC til 13 på 06 UTC
Brudte skyer i en højde af 1400 ft
Brudte skyer i en højde af 2500 ft, Optårnet Cumulus.
let regnbyger,

TAF: EPSY 122030Z 1221/1306 22007KT CAVOK PROB40 TEMPO 1221/1306 -SHRA BKN014 BKN025TCU

Vejrobservationer og prognoser fra mere end 4000 lufthavne (METAR og TAF).

De gule og røde prikker repræsenterer de meteorologiske stationer.

Flyt musen over at se navnet på stationen.

Så klik over at se vejr observationer og prognoser.

At skifte det kort: Klik på de grønne knapper med et sort kors for at zoome ind; på den grønne knap med en bindestreg for at zoome ud; eller på de grønne pile for tilstødende kort.


METAR-TAF: